sensor_id;sensor_type;location;lat;lon;timestamp;pressure;altitude;pressure_sealevel;temperature;humidity
22550;BME280;11441;57.164;-2.120;2023-09-19T00:00:44;98743.00;;;11.00;100.00
22550;BME280;11441;57.164;-2.120;2023-09-19T00:03:14;98748.56;;;10.89;100.00
22550;BME280;11441;57.164;-2.120;2023-09-19T00:05:42;98751.25;;;11.00;100.00
22550;BME280;11441;57.164;-2.120;2023-09-19T00:08:13;98755.59;;;11.01;100.00
22550;BME280;11441;57.164;-2.120;2023-09-19T00:10:43;98751.72;;;10.87;100.00
22550;BME280;11441;57.164;-2.120;2023-09-19T00:13:11;98749.66;;;11.02;100.00
22550;BME280;11441;57.164;-2.120;2023-09-19T00:15:44;98744.00;;;11.20;100.00
22550;BME280;11441;57.164;-2.120;2023-09-19T00:18:19;98745.19;;;11.19;100.00
22550;BME280;11441;57.164;-2.120;2023-09-19T00:20:49;98736.06;;;11.29;100.00
22550;BME280;11441;57.164;-2.120;2023-09-19T00:23:19;98746.75;;;11.20;100.00
22550;BME280;11441;57.164;-2.120;2023-09-19T00:25:46;98741.06;;;11.42;100.00
22550;BME280;11441;57.164;-2.120;2023-09-19T00:28:13;98739.22;;;11.28;100.00
22550;BME280;11441;57.164;-2.120;2023-09-19T00:30:42;98734.19;;;11.16;100.00
22550;BME280;11441;57.164;-2.120;2023-09-19T00:33:10;98724.84;;;11.02;100.00
22550;BME280;11441;57.164;-2.120;2023-09-19T00:35:53;98726.31;;;11.18;100.00
22550;BME280;11441;57.164;-2.120;2023-09-19T00:38:21;98713.81;;;11.06;100.00
22550;BME280;11441;57.164;-2.120;2023-09-19T00:40:50;98725.09;;;11.22;100.00
22550;BME280;11441;57.164;-2.120;2023-09-19T00:43:17;98723.69;;;11.03;100.00
22550;BME280;11441;57.164;-2.120;2023-09-19T00:45:47;98725.91;;;11.19;100.00
22550;BME280;11441;57.164;-2.120;2023-09-19T00:48:15;98720.59;;;11.43;100.00
22550;BME280;11441;57.164;-2.120;2023-09-19T00:50:45;98730.53;;;11.29;100.00
22550;BME280;11441;57.164;-2.120;2023-09-19T00:53:18;98721.22;;;11.12;100.00
22550;BME280;11441;57.164;-2.120;2023-09-19T00:55:48;98723.22;;;11.12;100.00
22550;BME280;11441;57.164;-2.120;2023-09-19T00:58:19;98729.41;;;11.23;100.00
22550;BME280;11441;57.164;-2.120;2023-09-19T01:00:48;98738.31;;;10.93;100.00
22550;BME280;11441;57.164;-2.120;2023-09-19T01:03:17;98724.41;;;11.07;100.00
22550;BME280;11441;57.164;-2.120;2023-09-19T01:05:45;98726.16;;;10.90;100.00
22550;BME280;11441;57.164;-2.120;2023-09-19T01:08:12;98721.13;;;10.78;100.00
22550;BME280;11441;57.164;-2.120;2023-09-19T01:10:46;98727.69;;;10.91;100.00
22550;BME280;11441;57.164;-2.120;2023-09-19T01:21:42;98731.31;;;10.81;100.00
22550;BME280;11441;57.164;-2.120;2023-09-19T01:29:49;98719.16;;;10.75;100.00
22550;BME280;11441;57.164;-2.120;2023-09-19T01:32:21;98715.53;;;10.89;100.00
22550;BME280;11441;57.164;-2.120;2023-09-19T01:37:21;98711.75;;;10.68;100.00
22550;BME280;11441;57.164;-2.120;2023-09-19T01:39:55;98704.59;;;10.74;100.00
22550;BME280;11441;57.164;-2.120;2023-09-19T01:42:42;98718.88;;;11.11;100.00
22550;BME280;11441;57.164;-2.120;2023-09-19T01:48:08;98723.50;;;11.21;100.00
22550;BME280;11441;57.164;-2.120;2023-09-19T01:50:44;98720.91;;;11.03;100.00
22550;BME280;11441;57.164;-2.120;2023-09-19T01:53:22;98714.97;;;11.08;100.00
22550;BME280;11441;57.164;-2.120;2023-09-19T01:55:51;98714.81;;;10.78;100.00
22550;BME280;11441;57.164;-2.120;2023-09-19T01:58:52;98713.84;;;11.02;100.00
22550;BME280;11441;57.164;-2.120;2023-09-19T02:01:22;98704.19;;;10.76;100.00
22550;BME280;11441;57.164;-2.120;2023-09-19T02:03:51;98702.31;;;10.62;100.00
22550;BME280;11441;57.164;-2.120;2023-09-19T02:06:18;98701.50;;;10.69;100.00
22550;BME280;11441;57.164;-2.120;2023-09-19T02:08:45;98695.56;;;10.74;100.00
22550;BME280;11441;57.164;-2.120;2023-09-19T02:11:13;98694.66;;;10.91;100.00
22550;BME280;11441;57.164;-2.120;2023-09-19T02:13:40;98698.19;;;10.88;100.00
22550;BME280;11441;57.164;-2.120;2023-09-19T02:16:09;98697.53;;;10.73;100.00
22550;BME280;11441;57.164;-2.120;2023-09-19T02:18:38;98692.03;;;10.73;100.00
22550;BME280;11441;57.164;-2.120;2023-09-19T02:21:06;98688.31;;;10.98;100.00
22550;BME280;11441;57.164;-2.120;2023-09-19T02:23:39;98685.31;;;10.78;100.00
22550;BME280;11441;57.164;-2.120;2023-09-19T02:26:06;98696.25;;;10.89;100.00
22550;BME280;11441;57.164;-2.120;2023-09-19T02:28:33;98685.31;;;10.74;100.00
22550;BME280;11441;57.164;-2.120;2023-09-19T02:31:01;98674.84;;;10.55;100.00
22550;BME280;11441;57.164;-2.120;2023-09-19T02:33:28;98680.28;;;10.66;100.00
22550;BME280;11441;57.164;-2.120;2023-09-19T02:36:02;98667.03;;;10.50;100.00
22550;BME280;11441;57.164;-2.120;2023-09-19T02:38:30;98667.84;;;10.47;100.00
22550;BME280;11441;57.164;-2.120;2023-09-19T02:40:57;98654.91;;;10.44;100.00
22550;BME280;11441;57.164;-2.120;2023-09-19T02:43:24;98660.03;;;10.42;100.00
22550;BME280;11441;57.164;-2.120;2023-09-19T02:45:51;98654.56;;;10.27;100.00
22550;BME280;11441;57.164;-2.120;2023-09-19T02:48:21;98638.91;;;10.17;100.00
22550;BME280;11441;57.164;-2.120;2023-09-19T02:50:51;98656.09;;;10.39;100.00
22550;BME280;11441;57.164;-2.120;2023-09-19T02:53:19;98644.59;;;10.51;100.00
22550;BME280;11441;57.164;-2.120;2023-09-19T02:55:49;98641.19;;;10.36;100.00
22550;BME280;11441;57.164;-2.120;2023-09-19T02:58:16;98662.78;;;10.38;100.00
22550;BME280;11441;57.164;-2.120;2023-09-19T03:00:43;98661.56;;;10.43;100.00
22550;BME280;11441;57.164;-2.120;2023-09-19T03:03:15;98664.38;;;10.28;100.00
22550;BME280;11441;57.164;-2.120;2023-09-19T03:05:43;98665.16;;;10.32;100.00
22550;BME280;11441;57.164;-2.120;2023-09-19T03:08:16;98667.84;;;10.43;100.00
22550;BME280;11441;57.164;-2.120;2023-09-19T03:10:46;98676.25;;;10.14;100.00
22550;BME280;11441;57.164;-2.120;2023-09-19T03:13:15;98667.84;;;10.43;100.00
22550;BME280;11441;57.164;-2.120;2023-09-19T03:15:42;98658.69;;;10.64;100.00
22550;BME280;11441;57.164;-2.120;2023-09-19T03:18:17;98653.91;;;10.72;100.00
22550;BME280;11441;57.164;-2.120;2023-09-19T03:20:55;98650.16;;;10.97;100.00
22550;BME280;11441;57.164;-2.120;2023-09-19T03:23:23;98642.34;;;10.88;100.00
22550;BME280;11441;57.164;-2.120;2023-09-19T03:25:50;98638.91;;;10.77;100.00
22550;BME280;11441;57.164;-2.120;2023-09-19T03:28:17;98646.59;;;11.00;100.00
22550;BME280;11441;57.164;-2.120;2023-09-19T03:30:44;98633.38;;;10.80;100.00
22550;BME280;11441;57.164;-2.120;2023-09-19T03:33:12;98625.91;;;10.81;100.00
22550;BME280;11441;57.164;-2.120;2023-09-19T03:35:40;98630.53;;;10.91;100.00
22550;BME280;11441;57.164;-2.120;2023-09-19T03:38:07;98627.47;;;10.82;100.00
22550;BME280;11441;57.164;-2.120;2023-09-19T03:40:34;98624.88;;;10.60;100.00
22550;BME280;11441;57.164;-2.120;2023-09-19T03:43:01;98617.88;;;10.52;100.00
22550;BME280;11441;57.164;-2.120;2023-09-19T03:45:29;98597.22;;;10.22;100.00
22550;BME280;11441;57.164;-2.120;2023-09-19T03:47:55;98614.47;;;10.30;100.00
22550;BME280;11441;57.164;-2.120;2023-09-19T03:50:23;98612.25;;;10.07;100.00
22550;BME280;11441;57.164;-2.120;2023-09-19T03:52:56;98612.25;;;10.07;100.00
22550;BME280;11441;57.164;-2.120;2023-09-19T03:55:23;98622.41;;;10.21;100.00
22550;BME280;11441;57.164;-2.120;2023-09-19T03:57:50;98616.13;;;10.13;100.00
22550;BME280;11441;57.164;-2.120;2023-09-19T04:00:17;98600.00;;;10.15;100.00
22550;BME280;11441;57.164;-2.120;2023-09-19T04:02:48;98600.56;;;9.88;100.00
22550;BME280;11441;57.164;-2.120;2023-09-19T04:05:15;98593.94;;;9.75;100.00
22550;BME280;11441;57.164;-2.120;2023-09-19T04:07:43;98608.84;;;9.81;100.00
22550;BME280;11441;57.164;-2.120;2023-09-19T04:10:10;98593.06;;;9.92;100.00
22550;BME280;11441;57.164;-2.120;2023-09-19T04:12:53;98605.53;;;10.11;100.00
22550;BME280;11441;57.164;-2.120;2023-09-19T04:15:23;98608.22;;;10.18;100.00
22550;BME280;11441;57.164;-2.120;2023-09-19T04:17:52;98596.41;;;10.25;100.00
22550;BME280;11441;57.164;-2.120;2023-09-19T04:20:19;98594.88;;;10.21;100.00
22550;BME280;11441;57.164;-2.120;2023-09-19T04:22:47;98596.47;;;10.18;100.00
22550;BME280;11441;57.164;-2.120;2023-09-19T04:25:14;98584.66;;;10.21;100.00
22550;BME280;11441;57.164;-2.120;2023-09-19T04:27:41;98576.81;;;10.16;100.00
22550;BME280;11441;57.164;-2.120;2023-09-19T04:30:10;98585.50;;;10.11;100.00
22550;BME280;11441;57.164;-2.120;2023-09-19T04:32:38;98591.44;;;10.06;100.00
22550;BME280;11441;57.164;-2.120;2023-09-19T04:35:10;98585.72;;;10.42;100.00
22550;BME280;11441;57.164;-2.120;2023-09-19T04:37:38;98583.53;;;10.67;100.00
22550;BME280;11441;57.164;-2.120;2023-09-19T04:40:07;98587.56;;;10.55;100.00
22550;BME280;11441;57.164;-2.120;2023-09-19T04:42:43;98583.97;;;10.62;100.00
22550;BME280;11441;57.164;-2.120;2023-09-19T04:45:10;98581.28;;;10.55;100.00
22550;BME280;11441;57.164;-2.120;2023-09-19T04:47:37;98574.88;;;10.69;100.00
22550;BME280;11441;57.164;-2.120;2023-09-19T04:50:10;98579.69;;;10.57;100.00
22550;BME280;11441;57.164;-2.120;2023-09-19T04:52:42;98569.06;;;10.60;100.00
22550;BME280;11441;57.164;-2.120;2023-09-19T04:55:14;98561.66;;;10.49;100.00
22550;BME280;11441;57.164;-2.120;2023-09-19T04:57:44;98557.88;;;10.32;100.00
22550;BME280;11441;57.164;-2.120;2023-09-19T05:00:13;98555.22;;;10.14;100.00
22550;BME280;11441;57.164;-2.120;2023-09-19T05:02:41;98546.41;;;10.37;100.00
22550;BME280;11441;57.164;-2.120;2023-09-19T05:05:09;98541.38;;;10.25;100.00
22550;BME280;11441;57.164;-2.120;2023-09-19T05:07:42;98538.06;;;10.48;100.00
22550;BME280;11441;57.164;-2.120;2023-09-19T05:10:09;98536.34;;;10.65;100.00
22550;BME280;11441;57.164;-2.120;2023-09-19T05:12:37;98538.16;;;10.83;100.00
22550;BME280;11441;57.164;-2.120;2023-09-19T05:15:07;98530.44;;;10.67;100.00
22550;BME280;11441;57.164;-2.120;2023-09-19T05:17:35;98531.53;;;10.77;100.00
22550;BME280;11441;57.164;-2.120;2023-09-19T05:20:02;98525.63;;;10.78;100.00
22550;BME280;11441;57.164;-2.120;2023-09-19T05:22:33;98523.94;;;10.88;100.00
22550;BME280;11441;57.164;-2.120;2023-09-19T05:24:59;98524.66;;;10.96;100.00
22550;BME280;11441;57.164;-2.120;2023-09-19T05:27:26;98525.50;;;10.89;100.00
22550;BME280;11441;57.164;-2.120;2023-09-19T05:29:53;98511.63;;;11.00;100.00
22550;BME280;11441;57.164;-2.120;2023-09-19T05:32:22;98527.28;;;10.68;100.00
22550;BME280;11441;57.164;-2.120;2023-09-19T05:34:49;98526.03;;;10.77;100.00
22550;BME280;11441;57.164;-2.120;2023-09-19T05:37:19;98520.34;;;10.94;100.00
22550;BME280;11441;57.164;-2.120;2023-09-19T05:39:46;98509.69;;;10.97;100.00
22550;BME280;11441;57.164;-2.120;2023-09-19T05:42:13;98518.25;;;11.02;100.00
22550;BME280;11441;57.164;-2.120;2023-09-19T05:44:40;98509.94;;;11.09;100.00
22550;BME280;11441;57.164;-2.120;2023-09-19T05:47:07;98514.25;;;11.10;100.00
22550;BME280;11441;57.164;-2.120;2023-09-19T05:49:36;98503.28;;;11.07;100.00
22550;BME280;11441;57.164;-2.120;2023-09-19T05:52:07;98495.94;;;10.93;100.00
22550;BME280;11441;57.164;-2.120;2023-09-19T05:54:34;98491.56;;;10.99;100.00
22550;BME280;11441;57.164;-2.120;2023-09-19T05:57:01;98487.97;;;11.02;100.00
22550;BME280;11441;57.164;-2.120;2023-09-19T05:59:28;98468.25;;;10.73;100.00
22550;BME280;11441;57.164;-2.120;2023-09-19T06:01:55;98483.31;;;10.99;100.00
22550;BME280;11441;57.164;-2.120;2023-09-19T06:04:22;98488.50;;;10.90;100.00
22550;BME280;11441;57.164;-2.120;2023-09-19T06:06:49;98489.72;;;10.89;100.00
22550;BME280;11441;57.164;-2.120;2023-09-19T06:09:16;98487.97;;;11.02;100.00
22550;BME280;11441;57.164;-2.120;2023-09-19T06:11:43;98486.56;;;10.90;100.00
22550;BME280;11441;57.164;-2.120;2023-09-19T06:14:10;98491.47;;;11.06;100.00
22550;BME280;11441;57.164;-2.120;2023-09-19T06:16:38;98491.78;;;11.12;100.00
22550;BME280;11441;57.164;-2.120;2023-09-19T06:19:06;98490.72;;;11.02;100.00
22550;BME280;11441;57.164;-2.120;2023-09-19T06:21:36;98491.16;;;11.01;100.00
22550;BME280;11441;57.164;-2.120;2023-09-19T06:24:03;98481.22;;;11.07;100.00
22550;BME280;11441;57.164;-2.120;2023-09-19T06:26:29;98476.78;;;11.17;100.00
22550;BME280;11441;57.164;-2.120;2023-09-19T06:28:57;98476.88;;;11.09;100.00
22550;BME280;11441;57.164;-2.120;2023-09-19T06:31:26;98473.75;;;11.07;100.00
22550;BME280;11441;57.164;-2.120;2023-09-19T06:33:53;98472.00;;;11.21;100.00
22550;BME280;11441;57.164;-2.120;2023-09-19T06:36:20;98466.28;;;11.08;100.00
22550;BME280;11441;57.164;-2.120;2023-09-19T06:38:47;98460.81;;;11.04;100.00
22550;BME280;11441;57.164;-2.120;2023-09-19T06:41:17;98459.38;;;10.92;100.00
22550;BME280;11441;57.164;-2.120;2023-09-19T06:43:45;98453.09;;;10.92;100.00
22550;BME280;11441;57.164;-2.120;2023-09-19T06:46:11;98450.72;;;10.94;100.00
22550;BME280;11441;57.164;-2.120;2023-09-19T06:48:39;98454.16;;;11.02;100.00
22550;BME280;11441;57.164;-2.120;2023-09-19T06:51:07;98445.28;;;11.18;100.00
22550;BME280;11441;57.164;-2.120;2023-09-19T06:53:34;98446.91;;;11.15;100.00
22550;BME280;11441;57.164;-2.120;2023-09-19T06:56:02;98444.47;;;11.21;100.00
22550;BME280;11441;57.164;-2.120;2023-09-19T06:58:29;98446.59;;;11.09;100.00
22550;BME280;11441;57.164;-2.120;2023-09-19T07:00:58;98456.41;;;11.10;100.00
22550;BME280;11441;57.164;-2.120;2023-09-19T07:03:25;98450.56;;;11.36;100.00
22550;BME280;11441;57.164;-2.120;2023-09-19T07:05:54;98448.03;;;11.48;100.00
22550;BME280;11441;57.164;-2.120;2023-09-19T07:08:22;98435.75;;;11.53;100.00
22550;BME280;11441;57.164;-2.120;2023-09-19T07:10:49;98435.31;;;11.55;100.00
22550;BME280;11441;57.164;-2.120;2023-09-19T07:13:16;98438.56;;;11.49;100.00
22550;BME280;11441;57.164;-2.120;2023-09-19T07:15:44;98437.09;;;11.41;100.00
22550;BME280;11441;57.164;-2.120;2023-09-19T07:18:15;98432.19;;;11.52;100.00
22550;BME280;11441;57.164;-2.120;2023-09-19T07:20:44;98429.84;;;11.51;100.00
22550;BME280;11441;57.164;-2.120;2023-09-19T07:23:21;98430.59;;;11.55;100.00
22550;BME280;11441;57.164;-2.120;2023-09-19T07:25:50;98431.38;;;11.56;100.00
22550;BME280;11441;57.164;-2.120;2023-09-19T07:28:17;98436.25;;;11.72;100.00
22550;BME280;11441;57.164;-2.120;2023-09-19T07:30:44;98428.81;;;11.68;100.00
22550;BME280;11441;57.164;-2.120;2023-09-19T07:33:11;98428.50;;;11.63;100.00
22550;BME280;11441;57.164;-2.120;2023-09-19T07:35:39;98421.59;;;11.51;100.00
22550;BME280;11441;57.164;-2.120;2023-09-19T07:38:08;98433.19;;;11.66;100.00
22550;BME280;11441;57.164;-2.120;2023-09-19T07:40:38;98423.56;;;11.78;100.00
22550;BME280;11441;57.164;-2.120;2023-09-19T07:43:06;98424.22;;;11.85;100.00
22550;BME280;11441;57.164;-2.120;2023-09-19T07:45:33;98429.31;;;11.87;100.00
22550;BME280;11441;57.164;-2.120;2023-09-19T07:48:00;98429.81;;;11.55;100.00
22550;BME280;11441;57.164;-2.120;2023-09-19T07:50:31;98422.69;;;11.57;100.00
22550;BME280;11441;57.164;-2.120;2023-09-19T07:52:58;98420.47;;;11.76;100.00
22550;BME280;11441;57.164;-2.120;2023-09-19T07:55:25;98416.06;;;12.05;100.00
22550;BME280;11441;57.164;-2.120;2023-09-19T07:57:52;98427.25;;;11.95;100.00
22550;BME280;11441;57.164;-2.120;2023-09-19T08:00:19;98412.06;;;11.83;100.00
22550;BME280;11441;57.164;-2.120;2023-09-19T08:02:46;98405.09;;;11.75;100.00
22550;BME280;11441;57.164;-2.120;2023-09-19T08:05:24;98402.16;;;11.85;100.00
22550;BME280;11441;57.164;-2.120;2023-09-19T08:07:51;98408.91;;;11.84;100.00
22550;BME280;11441;57.164;-2.120;2023-09-19T08:10:19;98390.78;;;11.83;100.00
22550;BME280;11441;57.164;-2.120;2023-09-19T08:12:46;98400.81;;;11.70;100.00
22550;BME280;11441;57.164;-2.120;2023-09-19T08:15:17;98399.81;;;11.84;100.00
22550;BME280;11441;57.164;-2.120;2023-09-19T08:17:48;98392.97;;;11.96;100.00
22550;BME280;11441;57.164;-2.120;2023-09-19T08:20:15;98388.44;;;12.29;100.00
22550;BME280;11441;57.164;-2.120;2023-09-19T08:22:53;98396.34;;;12.27;100.00
22550;BME280;11441;57.164;-2.120;2023-09-19T08:25:23;98396.69;;;12.09;100.00
22550;BME280;11441;57.164;-2.120;2023-09-19T08:27:54;98391.31;;;12.22;100.00
22550;BME280;11441;57.164;-2.120;2023-09-19T08:30:24;98394.56;;;12.17;100.00
22550;BME280;11441;57.164;-2.120;2023-09-19T08:32:57;98394.06;;;12.45;100.00
22550;BME280;11441;57.164;-2.120;2023-09-19T08:35:26;98391.09;;;12.56;100.00
22550;BME280;11441;57.164;-2.120;2023-09-19T08:37:53;98388.72;;;12.75;100.00
22550;BME280;11441;57.164;-2.120;2023-09-19T08:40:20;98387.88;;;12.78;100.00
22550;BME280;11441;57.164;-2.120;2023-09-19T08:45:15;98387.72;;;13.05;100.00
22550;BME280;11441;57.164;-2.120;2023-09-19T08:48:32;98380.00;;;12.96;100.00
22550;BME280;11441;57.164;-2.120;2023-09-19T08:53:34;98358.50;;;12.88;100.00
22550;BME280;11441;57.164;-2.120;2023-09-19T08:56:09;98367.03;;;13.13;100.00
22550;BME280;11441;57.164;-2.120;2023-09-19T08:58:48;98351.31;;;12.90;100.00
22550;BME280;11441;57.164;-2.120;2023-09-19T09:01:18;98361.56;;;12.73;100.00
22550;BME280;11441;57.164;-2.120;2023-09-19T09:03:53;98349.47;;;13.04;100.00
22550;BME280;11441;57.164;-2.120;2023-09-19T09:06:20;98349.94;;;12.82;100.00
22550;BME280;11441;57.164;-2.120;2023-09-19T09:08:47;98344.03;;;12.80;100.00
22550;BME280;11441;57.164;-2.120;2023-09-19T09:11:15;98349.72;;;12.73;100.00
22550;BME280;11441;57.164;-2.120;2023-09-19T09:13:47;98341.09;;;12.71;100.00
22550;BME280;11441;57.164;-2.120;2023-09-19T09:16:14;98335.00;;;12.59;100.00
22550;BME280;11441;57.164;-2.120;2023-09-19T09:18:46;98329.50;;;12.96;100.00
22550;BME280;11441;57.164;-2.120;2023-09-19T09:21:21;98334.25;;;12.95;100.00
22550;BME280;11441;57.164;-2.120;2023-09-19T09:23:49;98327.94;;;12.95;100.00
22550;BME280;11441;57.164;-2.120;2023-09-19T09:26:41;98329.78;;;13.01;100.00
22550;BME280;11441;57.164;-2.120;2023-09-19T09:29:09;98330.38;;;13.09;100.00
22550;BME280;11441;57.164;-2.120;2023-09-19T09:31:36;98318.41;;;13.16;100.00
22550;BME280;11441;57.164;-2.120;2023-09-19T09:34:04;98318.13;;;13.10;100.00
22550;BME280;11441;57.164;-2.120;2023-09-19T09:36:38;98325.59;;;12.93;100.00
22550;BME280;11441;57.164;-2.120;2023-09-19T09:39:05;98314.28;;;13.41;100.00
22550;BME280;11441;57.164;-2.120;2023-09-19T09:41:52;98312.03;;;13.35;100.00
22550;BME280;11441;57.164;-2.120;2023-09-19T09:44:19;98314.47;;;13.50;100.00
22550;BME280;11441;57.164;-2.120;2023-09-19T09:46:47;98310.91;;;13.49;100.00
22550;BME280;11441;57.164;-2.120;2023-09-19T09:49:25;98304.38;;;13.43;100.00
22550;BME280;11441;57.164;-2.120;2023-09-19T09:52:06;98305.72;;;13.51;100.00
22550;BME280;11441;57.164;-2.120;2023-09-19T09:55:02;98319.72;;;13.93;100.00
22550;BME280;11441;57.164;-2.120;2023-09-19T09:57:35;98315.84;;;13.42;100.00
22550;BME280;11441;57.164;-2.120;2023-09-19T10:00:02;98325.53;;;13.50;100.00
22550;BME280;11441;57.164;-2.120;2023-09-19T10:02:55;98333.13;;;13.46;100.00
22550;BME280;11441;57.164;-2.120;2023-09-19T10:05:23;98328.97;;;13.37;100.00
22550;BME280;11441;57.164;-2.120;2023-09-19T10:08:10;98330.03;;;13.44;100.00
22550;BME280;11441;57.164;-2.120;2023-09-19T10:10:40;98329.00;;;13.54;100.00
22550;BME280;11441;57.164;-2.120;2023-09-19T10:13:14;98331.97;;;13.92;100.00
22550;BME280;11441;57.164;-2.120;2023-09-19T10:15:48;98325.91;;;13.98;100.00
22550;BME280;11441;57.164;-2.120;2023-09-19T10:18:26;98337.69;;;13.69;100.00
22550;BME280;11441;57.164;-2.120;2023-09-19T10:20:56;98318.28;;;13.72;100.00
22550;BME280;11441;57.164;-2.120;2023-09-19T10:23:26;98325.16;;;13.81;100.00
22550;BME280;11441;57.164;-2.120;2023-09-19T10:25:57;98328.84;;;13.25;100.00
22550;BME280;11441;57.164;-2.120;2023-09-19T10:28:28;98325.03;;;13.55;100.00
22550;BME280;11441;57.164;-2.120;2023-09-19T10:30:56;98323.88;;;13.69;100.00
22550;BME280;11441;57.164;-2.120;2023-09-19T10:33:25;98324.94;;;14.04;100.00
22550;BME280;11441;57.164;-2.120;2023-09-19T10:35:59;98304.94;;;14.13;100.00
22550;BME280;11441;57.164;-2.120;2023-09-19T10:38:27;98305.06;;;14.09;100.00
22550;BME280;11441;57.164;-2.120;2023-09-19T10:40:56;98311.00;;;14.37;100.00
22550;BME280;11441;57.164;-2.120;2023-09-19T10:43:32;98306.25;;;14.38;100.00
22550;BME280;11441;57.164;-2.120;2023-09-19T10:46:05;98308.38;;;14.46;100.00
22550;BME280;11441;57.164;-2.120;2023-09-19T10:48:34;98307.06;;;14.51;100.00
22550;BME280;11441;57.164;-2.120;2023-09-19T10:53:45;98312.81;;;14.86;100.00
22550;BME280;11441;57.164;-2.120;2023-09-19T10:56:30;98311.22;;;14.72;100.00
22550;BME280;11441;57.164;-2.120;2023-09-19T10:59:09;98319.22;;;14.70;100.00
22550;BME280;11441;57.164;-2.120;2023-09-19T11:01:45;98321.69;;;14.51;100.00
22550;BME280;11441;57.164;-2.120;2023-09-19T11:09:52;98305.06;;;15.06;100.00
22550;BME280;11441;57.164;-2.120;2023-09-19T11:15:03;98315.31;;;14.38;100.00
22550;BME280;11441;57.164;-2.120;2023-09-19T11:17:36;98311.78;;;14.67;100.00
22550;BME280;11441;57.164;-2.120;2023-09-19T11:30:37;98329.16;;;14.67;100.00
22550;BME280;11441;57.164;-2.120;2023-09-19T11:36:08;98331.84;;;14.71;100.00
22550;BME280;11441;57.164;-2.120;2023-09-19T11:43:48;98326.19;;;14.75;100.00
22550;BME280;11441;57.164;-2.120;2023-09-19T11:46:21;98330.53;;;14.76;100.00
22550;BME280;11441;57.164;-2.120;2023-09-19T11:48:49;98329.44;;;14.86;100.00
22550;BME280;11441;57.164;-2.120;2023-09-19T11:51:18;98327.47;;;15.12;100.00
22550;BME280;11441;57.164;-2.120;2023-09-19T11:53:58;98322.91;;;14.93;100.00
22550;BME280;11441;57.164;-2.120;2023-09-19T11:56:28;98328.19;;;14.74;100.00
22550;BME280;11441;57.164;-2.120;2023-09-19T11:58:56;98328.88;;;14.91;100.00
22550;BME280;11441;57.164;-2.120;2023-09-19T12:01:34;98330.41;;;14.92;100.00
22550;BME280;11441;57.164;-2.120;2023-09-19T12:04:03;98338.50;;;14.86;100.00
22550;BME280;11441;57.164;-2.120;2023-09-19T12:06:31;98331.31;;;15.15;100.00
22550;BME280;11441;57.164;-2.120;2023-09-19T12:09:03;98327.25;;;15.06;100.00
22550;BME280;11441;57.164;-2.120;2023-09-19T12:11:41;98315.03;;;15.30;100.00
22550;BME280;11441;57.164;-2.120;2023-09-19T12:14:09;98321.13;;;15.24;100.00
22550;BME280;11441;57.164;-2.120;2023-09-19T12:16:36;98309.28;;;15.24;100.00
22550;BME280;11441;57.164;-2.120;2023-09-19T12:19:21;98304.50;;;15.24;100.00
22550;BME280;11441;57.164;-2.120;2023-09-19T12:21:59;98304.00;;;15.52;100.00
22550;BME280;11441;57.164;-2.120;2023-09-19T12:24:32;98322.66;;;15.25;100.00
22550;BME280;11441;57.164;-2.120;2023-09-19T12:27:01;98324.56;;;15.28;100.00
22550;BME280;11441;57.164;-2.120;2023-09-19T12:29:28;98316.69;;;15.40;100.00
22550;BME280;11441;57.164;-2.120;2023-09-19T12:31:58;98311.78;;;15.44;100.00
22550;BME280;11441;57.164;-2.120;2023-09-19T12:34:30;98313.00;;;15.43;100.00
22550;BME280;11441;57.164;-2.120;2023-09-19T12:37:14;98311.78;;;15.44;100.00
22550;BME280;11441;57.164;-2.120;2023-09-19T12:40:23;98304.47;;;15.12;100.00
22550;BME280;11441;57.164;-2.120;2023-09-19T12:42:56;98296.06;;;15.02;100.00
22550;BME280;11441;57.164;-2.120;2023-09-19T12:45:25;98313.47;;;15.03;100.00
22550;BME280;11441;57.164;-2.120;2023-09-19T12:51:09;98313.00;;;15.43;100.00
22550;BME280;11441;57.164;-2.120;2023-09-19T12:53:45;98314.47;;;15.22;100.00
22550;BME280;11441;57.164;-2.120;2023-09-19T12:56:16;98311.13;;;15.27;100.00
22550;BME280;11441;57.164;-2.120;2023-09-19T12:58:54;98310.59;;;15.45;100.00
22550;BME280;11441;57.164;-2.120;2023-09-19T13:01:23;98307.69;;;15.49;100.00
22550;BME280;11441;57.164;-2.120;2023-09-19T13:04:14;98313.13;;;15.39;100.00
22550;BME280;11441;57.164;-2.120;2023-09-19T13:06:49;98331.53;;;15.07;100.00
22550;BME280;11441;57.164;-2.120;2023-09-19T13:09:18;98330.22;;;15.12;100.00
22550;BME280;11441;57.164;-2.120;2023-09-19T13:11:45;98334.66;;;15.35;100.00
22550;BME280;11441;57.164;-2.120;2023-09-19T13:14:22;98341.00;;;15.10;100.00
22550;BME280;11441;57.164;-2.120;2023-09-19T13:16:58;98347.53;;;15.16;100.00
22550;BME280;11441;57.164;-2.120;2023-09-19T13:19:44;98335.09;;;15.46;100.00
22550;BME280;11441;57.164;-2.120;2023-09-19T13:22:43;98330.75;;;15.45;100.00
22550;BME280;11441;57.164;-2.120;2023-09-19T13:25:22;98336.97;;;15.62;100.00
22550;BME280;11441;57.164;-2.120;2023-09-19T13:30:25;98335.47;;;15.71;100.00
22550;BME280;11441;57.164;-2.120;2023-09-19T13:33:04;98340.28;;;15.70;100.00
22550;BME280;11441;57.164;-2.120;2023-09-19T13:35:33;98346.19;;;15.34;100.00
22550;BME280;11441;57.164;-2.120;2023-09-19T13:38:00;98344.63;;;15.20;100.00
22550;BME280;11441;57.164;-2.120;2023-09-19T13:40:28;98333.50;;;15.58;100.00
22550;BME280;11441;57.164;-2.120;2023-09-19T13:42:58;98337.75;;;15.50;100.00
22550;BME280;11441;57.164;-2.120;2023-09-19T13:45:25;98335.09;;;15.34;100.00
22550;BME280;11441;57.164;-2.120;2023-09-19T13:47:53;98344.97;;;15.48;100.00
22550;BME280;11441;57.164;-2.120;2023-09-19T13:50:20;98334.97;;;15.63;100.00
22550;BME280;11441;57.164;-2.120;2023-09-19T13:52:51;98337.63;;;15.41;100.00
22550;BME280;11441;57.164;-2.120;2023-09-19T13:55:18;98342.41;;;15.40;100.00
22550;BME280;11441;57.164;-2.120;2023-09-19T13:57:48;98343.28;;;15.37;100.00